EWG7UJ EDXW-EDDL
Flight info
| Callsign | EWG7UJ |
|---|---|
| Flight time | 0h 49m |
| Altitude | 24000 |
| Route | N0368F240 OLDIP1B OLDIP DCT ABFAD DCT ITMIZ Z529 HMM T851 HALME HALME1A |
| Aircraft | A319/M-SDE3FGHIRWY/LB1 |
Departure
| Time | 2026-05-08 15:21 |
|---|---|
| Airport | Westerland Sylt Airport (EDXW) |
Arrival
| Time | 2026-05-08 16:10 |
|---|---|
| Airport | Düsseldorf Airport (EDDL) |
| Time | Latitude | Longitude | Altitude | Speed | Heading |
|---|---|---|---|---|---|
| 2026-05-08 14:48 | 54.91352 | 8.33117 | 58 ft | 0 kts | 271° |
| 2026-05-08 15:13 | 54.91352 | 8.33139 | 51 ft | 4 kts | 271° |
| 2026-05-08 15:13 | 54.91352 | 8.33186 | 52 ft | 4 kts | 271° |
| 2026-05-08 15:13 | 54.91352 | 8.33229 | 52 ft | 2 kts | 271° |
| 2026-05-08 15:13 | 54.91351 | 8.33238 | 52 ft | 0 kts | 271° |
| 2026-05-08 15:16 | 54.91339 | 8.33236 | 55 ft | 6 kts | 183° |
| 2026-05-08 15:16 | 54.91288 | 8.33195 | 56 ft | 11 kts | 208° |
| 2026-05-08 15:16 | 54.91204 | 8.33179 | 55 ft | 15 kts | 178° |
| 2026-05-08 15:17 | 54.91085 | 8.33178 | 58 ft | 20 kts | 182° |
| 2026-05-08 15:17 | 54.90968 | 8.33107 | 55 ft | 11 kts | 201° |
| 2026-05-08 15:17 | 54.90888 | 8.33166 | 52 ft | 15 kts | 153° |
| 2026-05-08 15:17 | 54.90771 | 8.33216 | 58 ft | 20 kts | 174° |
| 2026-05-08 15:18 | 54.90615 | 8.33241 | 58 ft | 25 kts | 175° |
| 2026-05-08 15:18 | 54.90431 | 8.33323 | 54 ft | 30 kts | 150° |
| 2026-05-08 15:18 | 54.90285 | 8.33599 | 54 ft | 27 kts | 113° |
| 2026-05-08 15:18 | 54.90249 | 8.33863 | 58 ft | 23 kts | 99° |
| 2026-05-08 15:19 | 54.90235 | 8.34128 | 58 ft | 20 kts | 85° |
| 2026-05-08 15:19 | 54.90261 | 8.34387 | 56 ft | 24 kts | 79° |
| 2026-05-08 15:19 | 54.90292 | 8.34698 | 57 ft | 29 kts | 80° |
| 2026-05-08 15:19 | 54.90319 | 8.34952 | 57 ft | 13 kts | 79° |
| 2026-05-08 15:20 | 54.90350 | 8.35102 | 54 ft | 14 kts | 54° |
| 2026-05-08 15:20 | 54.90409 | 8.35181 | 57 ft | 8 kts | 339° |
| 2026-05-08 15:20 | 54.90429 | 8.35157 | 58 ft | 0 kts | 323° |
| 2026-05-08 15:20 | 54.90463 | 8.35114 | 56 ft | 32 kts | 324° |
| 2026-05-08 15:21 | 54.90850 | 8.34636 | 58 ft | 102 kts | 324° |
| 2026-05-08 15:21 | 54.91553 | 8.33770 | 369 ft | 123 kts | 326° |
| 2026-05-08 15:21 | 54.92222 | 8.32934 | 863 ft | 127 kts | 328° |
| 2026-05-08 15:21 | 54.93001 | 8.31969 | 1177 ft | 144 kts | 328° |
| 2026-05-08 15:22 | 54.93873 | 8.30919 | 1578 ft | 162 kts | 328° |
| 2026-05-08 15:22 | 54.94883 | 8.29711 | 1921 ft | 187 kts | 327° |
| 2026-05-08 15:22 | 54.96010 | 8.28312 | 2324 ft | 211 kts | 326° |
| 2026-05-08 15:22 | 54.97242 | 8.26765 | 3048 ft | 221 kts | 326° |
| 2026-05-08 15:23 | 54.98286 | 8.24792 | 3969 ft | 229 kts | 294° |
| 2026-05-08 15:23 | 54.98417 | 8.22104 | 4901 ft | 230 kts | 251° |
| 2026-05-08 15:23 | 54.97608 | 8.19746 | 5882 ft | 228 kts | 226° |
| 2026-05-08 15:23 | 54.96606 | 8.17587 | 6894 ft | 230 kts | 230° |
| 2026-05-08 15:24 | 54.95641 | 8.15352 | 7888 ft | 232 kts | 231° |
| 2026-05-08 15:24 | 54.94673 | 8.13103 | 8907 ft | 232 kts | 227° |
| 2026-05-08 15:24 | 54.93428 | 8.11343 | 9941 ft | 231 kts | 207° |
| 2026-05-08 15:24 | 54.91856 | 8.10395 | 10566 ft | 252 kts | 187° |
| 2026-05-08 15:25 | 54.90021 | 8.10131 | 11022 ft | 277 kts | 184° |
| 2026-05-08 15:25 | 54.88015 | 8.09876 | 11414 ft | 302 kts | 184° |
| 2026-05-08 15:25 | 54.85857 | 8.09595 | 11962 ft | 317 kts | 185° |
| 2026-05-08 15:25 | 54.83631 | 8.09300 | 12775 ft | 324 kts | 185° |
| 2026-05-08 15:26 | 54.81363 | 8.08989 | 13629 ft | 330 kts | 185° |
| 2026-05-08 15:26 | 54.79060 | 8.08670 | 14418 ft | 335 kts | 186° |
| 2026-05-08 15:26 | 54.76719 | 8.08344 | 15172 ft | 339 kts | 186° |
| 2026-05-08 15:26 | 54.74350 | 8.08012 | 15926 ft | 344 kts | 186° |
| 2026-05-08 15:27 | 54.71951 | 8.07676 | 16689 ft | 348 kts | 186° |
| 2026-05-08 15:27 | 54.69524 | 8.07337 | 17451 ft | 352 kts | 186° |
| 2026-05-08 15:27 | 54.67062 | 8.06997 | 18207 ft | 357 kts | 186° |
| 2026-05-08 15:27 | 54.64571 | 8.06656 | 18898 ft | 361 kts | 186° |
| 2026-05-08 15:28 | 54.62055 | 8.06312 | 19559 ft | 365 kts | 186° |
| 2026-05-08 15:28 | 54.59514 | 8.05962 | 20220 ft | 368 kts | 187° |
| 2026-05-08 15:28 | 54.56976 | 8.05610 | 20885 ft | 372 kts | 187° |
| 2026-05-08 15:28 | 54.54375 | 8.05252 | 21548 ft | 376 kts | 187° |
| 2026-05-08 15:29 | 54.51758 | 8.04895 | 22198 ft | 380 kts | 187° |
| 2026-05-08 15:29 | 54.49108 | 8.04539 | 22824 ft | 384 kts | 187° |
| 2026-05-08 15:29 | 54.46430 | 8.04179 | 23462 ft | 388 kts | 187° |
| 2026-05-08 15:29 | 54.43725 | 8.03813 | 23995 ft | 392 kts | 187° |
| 2026-05-08 15:30 | 54.40998 | 8.03443 | 24152 ft | 392 kts | 187° |
| 2026-05-08 15:30 | 54.38319 | 8.03084 | 24191 ft | 379 kts | 187° |
| 2026-05-08 15:30 | 54.35737 | 8.02738 | 24196 ft | 365 kts | 187° |
| 2026-05-08 15:30 | 54.33220 | 8.02399 | 24196 ft | 361 kts | 187° |
| 2026-05-08 15:31 | 54.30720 | 8.02061 | 24193 ft | 360 kts | 187° |
| 2026-05-08 15:31 | 54.28251 | 8.01729 | 24193 ft | 360 kts | 187° |
| 2026-05-08 15:31 | 54.25758 | 8.01393 | 24194 ft | 359 kts | 187° |
| 2026-05-08 15:31 | 54.23264 | 8.01054 | 24193 ft | 359 kts | 187° |
| 2026-05-08 15:32 | 54.20767 | 8.00716 | 24191 ft | 359 kts | 187° |
| 2026-05-08 15:32 | 54.18276 | 8.00384 | 24190 ft | 359 kts | 187° |
| 2026-05-08 15:32 | 54.15787 | 8.00050 | 24191 ft | 359 kts | 187° |
| 2026-05-08 15:32 | 54.13282 | 7.99714 | 24189 ft | 359 kts | 187° |
| 2026-05-08 15:33 | 54.10821 | 7.99387 | 24190 ft | 359 kts | 187° |
| 2026-05-08 15:33 | 54.08296 | 7.99049 | 24187 ft | 359 kts | 187° |
| 2026-05-08 15:33 | 54.05834 | 7.98717 | 24186 ft | 359 kts | 187° |
| 2026-05-08 15:33 | 54.03336 | 7.98383 | 24186 ft | 359 kts | 188° |
| 2026-05-08 15:34 | 54.00841 | 7.98049 | 24183 ft | 359 kts | 187° |
| 2026-05-08 15:34 | 53.98349 | 7.97718 | 24180 ft | 359 kts | 187° |
| 2026-05-08 15:34 | 53.95859 | 7.97392 | 24177 ft | 359 kts | 187° |
| 2026-05-08 15:34 | 53.93362 | 7.97064 | 24176 ft | 359 kts | 187° |
| 2026-05-08 15:35 | 53.90875 | 7.96732 | 24175 ft | 359 kts | 187° |
| 2026-05-08 15:35 | 53.88381 | 7.96400 | 24171 ft | 359 kts | 187° |
| 2026-05-08 15:35 | 53.85894 | 7.96071 | 24168 ft | 358 kts | 187° |
| 2026-05-08 15:35 | 53.83787 | 7.95793 | 24161 ft | 358 kts | 187° |
| 2026-05-08 15:36 | 53.81304 | 7.95463 | 24163 ft | 358 kts | 187° |
| 2026-05-08 15:36 | 53.79659 | 7.95243 | 24159 ft | 358 kts | 187° |
| 2026-05-08 15:36 | 53.76327 | 7.94802 | 24156 ft | 358 kts | 187° |
| 2026-05-08 15:36 | 53.73839 | 7.94473 | 24156 ft | 358 kts | 187° |
| 2026-05-08 15:37 | 53.71354 | 7.94147 | 24157 ft | 358 kts | 187° |
| 2026-05-08 15:37 | 53.68863 | 7.93823 | 24157 ft | 358 kts | 187° |
| 2026-05-08 15:37 | 53.66375 | 7.93501 | 24153 ft | 358 kts | 187° |
| 2026-05-08 15:37 | 53.63893 | 7.93183 | 24156 ft | 358 kts | 187° |
| 2026-05-08 15:38 | 53.61436 | 7.92866 | 24157 ft | 358 kts | 187° |
| 2026-05-08 15:38 | 53.58950 | 7.92541 | 24157 ft | 358 kts | 187° |
| 2026-05-08 15:38 | 53.56461 | 7.92210 | 24159 ft | 358 kts | 187° |
| 2026-05-08 15:38 | 53.53976 | 7.91882 | 24162 ft | 358 kts | 187° |
| 2026-05-08 15:39 | 53.51492 | 7.91555 | 24160 ft | 358 kts | 187° |
| 2026-05-08 15:39 | 53.49005 | 7.91234 | 24161 ft | 358 kts | 187° |
| 2026-05-08 15:39 | 53.46521 | 7.90916 | 24188 ft | 357 kts | 186° |
| 2026-05-08 15:39 | 53.44050 | 7.90601 | 24172 ft | 355 kts | 186° |
| 2026-05-08 15:40 | 53.42392 | 7.90386 | 24160 ft | 354 kts | 186° |
| 2026-05-08 15:40 | 53.39958 | 7.90073 | 24157 ft | 355 kts | 186° |
| 2026-05-08 15:40 | 53.37494 | 7.89755 | 24154 ft | 355 kts | 186° |
| 2026-05-08 15:40 | 53.35030 | 7.89438 | 24154 ft | 356 kts | 186° |
| 2026-05-08 15:41 | 53.32559 | 7.89121 | 24151 ft | 356 kts | 186° |
| 2026-05-08 15:41 | 53.30094 | 7.88804 | 24154 ft | 356 kts | 186° |
| 2026-05-08 15:41 | 53.27621 | 7.88485 | 24149 ft | 356 kts | 186° |
| 2026-05-08 15:41 | 53.25154 | 7.88173 | 24151 ft | 356 kts | 186° |
| 2026-05-08 15:42 | 53.22687 | 7.87860 | 24151 ft | 356 kts | 186° |
| 2026-05-08 15:42 | 53.20219 | 7.87545 | 24152 ft | 356 kts | 186° |
| 2026-05-08 15:42 | 53.17755 | 7.87227 | 24154 ft | 355 kts | 186° |
| 2026-05-08 15:42 | 53.15290 | 7.86907 | 24158 ft | 355 kts | 186° |
| 2026-05-08 15:43 | 53.12820 | 7.86589 | 24159 ft | 356 kts | 186° |
| 2026-05-08 15:43 | 53.10349 | 7.86274 | 24160 ft | 356 kts | 186° |
| 2026-05-08 15:43 | 53.07878 | 7.85957 | 24162 ft | 355 kts | 186° |
| 2026-05-08 15:43 | 53.05408 | 7.85640 | 24167 ft | 355 kts | 186° |
| 2026-05-08 15:44 | 53.02942 | 7.85325 | 24168 ft | 355 kts | 186° |
| 2026-05-08 15:44 | 53.00511 | 7.85016 | 24167 ft | 355 kts | 186° |
| 2026-05-08 15:44 | 52.98050 | 7.84704 | 24166 ft | 355 kts | 186° |
| 2026-05-08 15:44 | 52.95583 | 7.84393 | 24166 ft | 354 kts | 186° |
| 2026-05-08 15:45 | 52.93123 | 7.84083 | 24165 ft | 354 kts | 186° |
| 2026-05-08 15:45 | 52.90665 | 7.83773 | 24163 ft | 354 kts | 186° |
| 2026-05-08 15:45 | 52.88215 | 7.83463 | 24164 ft | 353 kts | 186° |
| 2026-05-08 15:45 | 52.85762 | 7.83157 | 24165 ft | 353 kts | 186° |
| 2026-05-08 15:46 | 52.83311 | 7.82849 | 24166 ft | 353 kts | 186° |
| 2026-05-08 15:46 | 52.80867 | 7.82472 | 24163 ft | 352 kts | 192° |
| 2026-05-08 15:46 | 52.78534 | 7.81327 | 24161 ft | 350 kts | 200° |
| 2026-05-08 15:46 | 52.76231 | 7.80010 | 24162 ft | 350 kts | 200° |
| 2026-05-08 15:47 | 52.73963 | 7.78701 | 24160 ft | 350 kts | 201° |
| 2026-05-08 15:47 | 52.71665 | 7.77371 | 24159 ft | 350 kts | 201° |
| 2026-05-08 15:47 | 52.69368 | 7.76037 | 24160 ft | 350 kts | 201° |
| 2026-05-08 15:47 | 52.67071 | 7.74706 | 24162 ft | 350 kts | 201° |
| 2026-05-08 15:48 | 52.62475 | 7.72055 | 24162 ft | 350 kts | 200° |
| 2026-05-08 15:48 | 52.60174 | 7.70734 | 24159 ft | 350 kts | 200° |
| 2026-05-08 15:48 | 52.57879 | 7.69414 | 24159 ft | 350 kts | 200° |
| 2026-05-08 15:49 | 52.55580 | 7.68091 | 24160 ft | 350 kts | 200° |
| 2026-05-08 15:49 | 52.53288 | 7.66772 | 24158 ft | 350 kts | 200° |
| 2026-05-08 15:49 | 52.50990 | 7.65449 | 24157 ft | 350 kts | 200° |
| 2026-05-08 15:49 | 52.48692 | 7.64132 | 24158 ft | 350 kts | 200° |
| 2026-05-08 15:50 | 52.46393 | 7.62817 | 24158 ft | 350 kts | 200° |
| 2026-05-08 15:50 | 52.44096 | 7.61506 | 24157 ft | 349 kts | 200° |
| 2026-05-08 15:50 | 52.41824 | 7.60211 | 24158 ft | 349 kts | 200° |
| 2026-05-08 15:50 | 52.39528 | 7.58901 | 24159 ft | 349 kts | 200° |
| 2026-05-08 15:51 | 52.37226 | 7.57586 | 24161 ft | 349 kts | 200° |
| 2026-05-08 15:51 | 52.34932 | 7.56277 | 24159 ft | 349 kts | 200° |
| 2026-05-08 15:51 | 52.32635 | 7.54970 | 24157 ft | 349 kts | 200° |
| 2026-05-08 15:51 | 52.30340 | 7.53668 | 24157 ft | 349 kts | 200° |
| 2026-05-08 15:52 | 52.28047 | 7.52372 | 24157 ft | 349 kts | 200° |
| 2026-05-08 15:52 | 52.25751 | 7.51076 | 24154 ft | 349 kts | 200° |
| 2026-05-08 15:52 | 52.23453 | 7.49772 | 23935 ft | 349 kts | 200° |
| 2026-05-08 15:52 | 52.21175 | 7.48480 | 23659 ft | 344 kts | 200° |
| 2026-05-08 15:53 | 52.18921 | 7.47207 | 23234 ft | 341 kts | 200° |
| 2026-05-08 15:53 | 52.16689 | 7.45950 | 22831 ft | 338 kts | 200° |
| 2026-05-08 15:53 | 52.14510 | 7.44723 | 22427 ft | 334 kts | 200° |
| 2026-05-08 15:53 | 52.12317 | 7.43487 | 22034 ft | 331 kts | 200° |
| 2026-05-08 15:54 | 52.10151 | 7.42268 | 21640 ft | 328 kts | 200° |
| 2026-05-08 15:54 | 52.08002 | 7.41061 | 21253 ft | 326 kts | 200° |
| 2026-05-08 15:54 | 52.05869 | 7.39865 | 20859 ft | 323 kts | 200° |
| 2026-05-08 15:54 | 52.03764 | 7.38635 | 20553 ft | 318 kts | 205° |
| 2026-05-08 15:55 | 52.01943 | 7.36765 | 20480 ft | 304 kts | 218° |
| 2026-05-08 15:55 | 51.98576 | 7.32650 | 20342 ft | 304 kts | 218° |
| 2026-05-08 15:55 | 51.96888 | 7.30584 | 20275 ft | 303 kts | 218° |
| 2026-05-08 15:56 | 51.95172 | 7.28478 | 20094 ft | 324 kts | 218° |
| 2026-05-08 15:56 | 51.93289 | 7.26165 | 19839 ft | 352 kts | 218° |
| 2026-05-08 15:56 | 51.91309 | 7.23743 | 19588 ft | 360 kts | 218° |
| 2026-05-08 15:56 | 51.89306 | 7.21301 | 19342 ft | 361 kts | 218° |
| 2026-05-08 15:57 | 51.87299 | 7.18858 | 19101 ft | 360 kts | 218° |
| 2026-05-08 15:57 | 51.85298 | 7.16424 | 18785 ft | 359 kts | 218° |
| 2026-05-08 15:57 | 51.83335 | 7.14038 | 18356 ft | 357 kts | 218° |
| 2026-05-08 15:57 | 51.81358 | 7.11636 | 17887 ft | 355 kts | 218° |
| 2026-05-08 15:58 | 51.79389 | 7.09248 | 17446 ft | 353 kts | 218° |
| 2026-05-08 15:58 | 51.77435 | 7.06877 | 17019 ft | 350 kts | 218° |
| 2026-05-08 15:58 | 51.75492 | 7.04517 | 16584 ft | 348 kts | 218° |
| 2026-05-08 15:58 | 51.73561 | 7.02171 | 16162 ft | 346 kts | 218° |
| 2026-05-08 15:59 | 51.71645 | 6.99846 | 15747 ft | 344 kts | 218° |
| 2026-05-08 15:59 | 51.69737 | 6.97537 | 15331 ft | 342 kts | 218° |
| 2026-05-08 15:59 | 51.67840 | 6.95249 | 14893 ft | 340 kts | 218° |
| 2026-05-08 15:59 | 51.65952 | 6.92978 | 14491 ft | 338 kts | 218° |
| 2026-05-08 16:00 | 51.64074 | 6.90722 | 14083 ft | 336 kts | 218° |
| 2026-05-08 16:00 | 51.62206 | 6.88478 | 13656 ft | 334 kts | 218° |
| 2026-05-08 16:00 | 51.60349 | 6.86250 | 13227 ft | 332 kts | 218° |
| 2026-05-08 16:00 | 51.58502 | 6.84033 | 12816 ft | 330 kts | 218° |
| 2026-05-08 16:01 | 51.56690 | 6.81860 | 12406 ft | 328 kts | 217° |
| 2026-05-08 16:01 | 51.54871 | 6.79676 | 12006 ft | 326 kts | 218° |
| 2026-05-08 16:01 | 51.53054 | 6.77497 | 11602 ft | 324 kts | 217° |
| 2026-05-08 16:01 | 51.51250 | 6.75338 | 11199 ft | 322 kts | 217° |
| 2026-05-08 16:02 | 51.49457 | 6.73197 | 10800 ft | 320 kts | 217° |
| 2026-05-08 16:02 | 51.47676 | 6.71075 | 10340 ft | 316 kts | 217° |
| 2026-05-08 16:02 | 51.45914 | 6.68978 | 9675 ft | 314 kts | 217° |
| 2026-05-08 16:02 | 51.44169 | 6.66904 | 8932 ft | 310 kts | 217° |
| 2026-05-08 16:03 | 51.42263 | 6.65345 | 8085 ft | 308 kts | 197° |
| 2026-05-08 16:03 | 51.40186 | 6.64512 | 7248 ft | 307 kts | 193° |
| 2026-05-08 16:03 | 51.38104 | 6.63745 | 6447 ft | 306 kts | 193° |
| 2026-05-08 16:03 | 51.36066 | 6.62988 | 6075 ft | 290 kts | 193° |
| 2026-05-08 16:04 | 51.34173 | 6.62287 | 5936 ft | 269 kts | 193° |
| 2026-05-08 16:04 | 51.32414 | 6.61638 | 5799 ft | 249 kts | 193° |
| 2026-05-08 16:04 | 51.30827 | 6.61013 | 5660 ft | 221 kts | 200° |
| 2026-05-08 16:04 | 51.29658 | 6.59719 | 5499 ft | 193 kts | 228° |
| 2026-05-08 16:05 | 51.28805 | 6.58125 | 5025 ft | 187 kts | 232° |
| 2026-05-08 16:05 | 51.27996 | 6.56504 | 4473 ft | 186 kts | 233° |
| 2026-05-08 16:05 | 51.27206 | 6.54916 | 4084 ft | 177 kts | 232° |
| 2026-05-08 16:05 | 51.26201 | 6.53908 | 3666 ft | 176 kts | 188° |
| 2026-05-08 16:06 | 51.25070 | 6.54447 | 3266 ft | 172 kts | 134° |
| 2026-05-08 16:06 | 51.24639 | 6.56042 | 3212 ft | 148 kts | 95° |
| 2026-05-08 16:06 | 51.24537 | 6.57600 | 2977 ft | 136 kts | 95° |
| 2026-05-08 16:06 | 51.24411 | 6.59032 | 2699 ft | 129 kts | 97° |
| 2026-05-08 16:07 | 51.24275 | 6.60439 | 2552 ft | 128 kts | 96° |
| 2026-05-08 16:07 | 51.24161 | 6.61844 | 2452 ft | 128 kts | 93° |
| 2026-05-08 16:07 | 51.24150 | 6.63259 | 2239 ft | 126 kts | 85° |
| 2026-05-08 16:07 | 51.24181 | 6.64663 | 2027 ft | 127 kts | 84° |
| 2026-05-08 16:08 | 51.24279 | 6.66043 | 1741 ft | 124 kts | 74° |
| 2026-05-08 16:08 | 51.24537 | 6.67357 | 1544 ft | 124 kts | 69° |
| 2026-05-08 16:08 | 51.24902 | 6.68590 | 1364 ft | 122 kts | 57° |
| 2026-05-08 16:08 | 51.25374 | 6.69727 | 1162 ft | 124 kts | 52° |
| 2026-05-08 16:09 | 51.25897 | 6.70828 | 925 ft | 124 kts | 52° |
| 2026-05-08 16:09 | 51.26238 | 6.71562 | 751 ft | 125 kts | 53° |
| 2026-05-08 16:09 | 51.26934 | 6.73036 | 532 ft | 126 kts | 52° |
| 2026-05-08 16:09 | 51.27476 | 6.74161 | 386 ft | 124 kts | 53° |
| 2026-05-08 16:10 | 51.28009 | 6.75298 | 197 ft | 128 kts | 51° |
| 2026-05-08 16:10 | 51.28508 | 6.76344 | 117 ft | 104 kts | 53° |
| 2026-05-08 16:10 | 51.28807 | 6.76973 | 116 ft | 53 kts | 52° |
| 2026-05-08 16:10 | 51.28986 | 6.77349 | 117 ft | 28 kts | 53° |
| 2026-05-08 16:11 | 51.29018 | 6.77536 | 116 ft | 17 kts | 109° |
| 2026-05-08 16:11 | 51.28950 | 6.77637 | 118 ft | 11 kts | 142° |
| 2026-05-08 16:11 | 51.28881 | 6.77596 | 116 ft | 14 kts | 231° |
| 2026-05-08 16:11 | 51.28816 | 6.77459 | 118 ft | 17 kts | 233° |
| 2026-05-08 16:12 | 51.28736 | 6.77293 | 116 ft | 20 kts | 232° |
| 2026-05-08 16:12 | 51.28643 | 6.77100 | 118 ft | 21 kts | 230° |
| 2026-05-08 16:12 | 51.28575 | 6.76950 | 117 ft | 14 kts | 232° |
| 2026-05-08 16:12 | 51.28510 | 6.76816 | 118 ft | 17 kts | 232° |
| 2026-05-08 16:13 | 51.28430 | 6.76798 | 117 ft | 13 kts | 145° |
| 2026-05-08 16:13 | 51.28341 | 6.76867 | 118 ft | 16 kts | 183° |
| 2026-05-08 16:13 | 51.28217 | 6.76844 | 118 ft | 20 kts | 187° |
| 2026-05-08 16:13 | 51.28116 | 6.76816 | 117 ft | 13 kts | 196° |
| 2026-05-08 16:14 | 51.28058 | 6.76786 | 114 ft | 3 kts | 199° |
| 2026-05-08 16:14 | 51.28057 | 6.76780 | 114 ft | 1 kts | 242° |
| 2026-05-08 16:14 | 51.28057 | 6.76746 | 118 ft | 4 kts | 271° |
| 2026-05-08 16:14 | 51.28059 | 6.76711 | 116 ft | 1 kts | 275° |
| 2026-05-08 16:15 | 51.28059 | 6.76707 | 116 ft | 0 kts | 275° |